createdAt,value
2018-06-17T00:01:15.245Z,7.67
2018-06-17T00:03:42.341Z,17.47
2018-06-17T00:06:09.398Z,11.63
2018-06-17T00:08:36.450Z,10.17
2018-06-17T00:11:03.524Z,9.73
2018-06-17T00:13:30.661Z,9.43
2018-06-17T00:15:57.742Z,9.37
2018-06-17T00:18:24.756Z,9.73
2018-06-17T00:20:51.767Z,9.60
2018-06-17T00:23:19.064Z,8.50
2018-06-17T00:25:46.182Z,8.83
2018-06-17T00:28:13.232Z,8.93
2018-06-17T00:30:40.229Z,9.40
2018-06-17T00:33:07.247Z,8.30
2018-06-17T00:35:34.227Z,8.50
2018-06-17T00:38:01.270Z,8.93
2018-06-17T00:40:28.264Z,8.67
2018-06-17T00:42:56.107Z,9.10
2018-06-17T00:45:23.128Z,8.37
2018-06-17T00:47:50.229Z,8.67
2018-06-17T00:50:17.296Z,8.90
2018-06-17T00:52:44.361Z,8.70
2018-06-17T00:55:11.421Z,11.30
2018-06-17T00:57:47.541Z,10.00
2018-06-17T01:00:14.617Z,10.40
2018-06-17T01:02:41.654Z,10.23
2018-06-17T01:05:08.709Z,10.10
2018-06-17T01:07:36.240Z,10.60
2018-06-17T01:10:03.625Z,9.20
2018-06-17T01:12:30.693Z,11.00
2018-06-17T01:14:57.705Z,10.33
2018-06-17T01:17:25.073Z,10.17
2018-06-17T01:19:52.120Z,9.97
2018-06-17T01:22:19.164Z,10.80
2018-06-17T01:24:46.186Z,10.40
2018-06-17T01:27:13.263Z,10.93
2018-06-17T01:29:40.292Z,10.90
2018-06-17T01:32:07.341Z,11.13
2018-06-17T01:34:34.365Z,10.57
2018-06-17T01:37:01.427Z,10.00
2018-06-17T01:39:28.445Z,10.83
2018-06-17T01:41:55.741Z,10.13
2018-06-17T01:44:24.516Z,10.00
2018-06-17T01:46:51.577Z,10.70
2018-06-17T01:49:18.671Z,9.70
2018-06-17T01:51:45.697Z,9.23
2018-06-17T01:54:12.738Z,10.30
2018-06-17T01:56:39.804Z,11.00
2018-06-17T01:59:06.940Z,9.67
2018-06-17T02:01:34.580Z,10.60
2018-06-17T02:04:07.311Z,9.90
2018-06-17T02:06:40.029Z,9.57
2018-06-17T02:09:12.722Z,10.27
2018-06-17T02:11:43.627Z,10.30
2018-06-17T02:14:16.434Z,10.23
2018-06-17T02:16:43.458Z,10.10
2018-06-17T02:19:10.804Z,9.77
2018-06-17T02:21:38.008Z,9.03
2018-06-17T02:24:05.305Z,9.33
2018-06-17T02:26:32.633Z,9.80
2018-06-17T02:28:59.879Z,9.97
2018-06-17T02:31:26.964Z,10.37
2018-06-17T02:33:54.170Z,11.13
2018-06-17T02:36:21.226Z,9.50
2018-06-17T02:38:48.228Z,10.10
2018-06-17T02:41:15.249Z,9.70
2018-06-17T02:43:42.230Z,9.43
2018-06-17T02:46:14.836Z,12.60
2018-06-17T02:48:47.485Z,8.70
2018-06-17T02:51:20.100Z,9.50
2018-06-17T02:53:52.977Z,9.40
2018-06-17T02:56:19.956Z,9.23
2018-06-17T02:58:46.973Z,9.00
2018-06-17T03:01:14.038Z,9.67
2018-06-17T03:03:41.076Z,8.97
2018-06-17T03:06:08.088Z,9.40
2018-06-17T03:08:35.084Z,8.70
2018-06-17T03:11:02.297Z,9.53
2018-06-17T03:13:29.506Z,9.40
2018-06-17T03:15:56.551Z,8.80
2018-06-17T03:18:23.558Z,9.00
2018-06-17T03:20:50.607Z,10.10
2018-06-17T03:23:17.903Z,8.17
2018-06-17T03:25:50.649Z,8.80
2018-06-17T03:28:23.308Z,8.80
2018-06-17T03:30:55.966Z,8.93
2018-06-17T03:33:28.672Z,8.90
2018-06-17T03:36:01.302Z,9.40
2018-06-17T03:38:28.311Z,8.70
2018-06-17T03:40:55.340Z,8.60
2018-06-17T03:43:22.353Z,8.43
2018-06-17T03:45:49.361Z,8.33
2018-06-17T03:48:16.452Z,8.00
2018-06-17T03:50:43.477Z,6.60
2018-06-17T03:53:10.469Z,6.40
2018-06-17T03:55:37.560Z,6.30
2018-06-17T03:58:04.564Z,6.13
2018-06-17T04:00:31.637Z,5.67
2018-06-17T04:02:58.649Z,5.90
2018-06-17T04:05:28.413Z,6.10
2018-06-17T04:07:55.892Z,5.37
2018-06-17T04:10:22.924Z,6.10
2018-06-17T04:12:49.920Z,6.10
2018-06-17T04:15:17.114Z,5.50
2018-06-17T04:17:44.145Z,5.40
2018-06-17T04:20:11.472Z,6.50
2018-06-17T04:22:38.520Z,6.40
2018-06-17T04:25:05.540Z,5.67
2018-06-17T04:27:32.549Z,5.30
2018-06-17T04:29:59.588Z,5.70
2018-06-17T04:32:27.471Z,6.10
2018-06-17T04:34:54.514Z,5.87
2018-06-17T04:37:21.576Z,6.17
2018-06-17T04:39:48.608Z,5.47
2018-06-17T04:42:15.649Z,6.07
2018-06-17T04:44:42.654Z,6.00
2018-06-17T04:47:09.629Z,6.43
2018-06-17T04:49:36.668Z,5.67
2018-06-17T04:52:03.740Z,6.67
2018-06-17T04:54:30.809Z,5.30
2018-06-17T04:56:57.840Z,6.23
2018-06-17T04:59:24.944Z,6.53
2018-06-17T05:01:52.008Z,5.90
2018-06-17T05:04:19.093Z,6.70
2018-06-17T05:06:46.129Z,5.90
2018-06-17T05:09:13.309Z,6.03
2018-06-17T05:11:40.331Z,5.90
2018-06-17T05:14:07.461Z,6.30
2018-06-17T05:16:34.500Z,6.23
2018-06-17T05:19:01.557Z,6.70
2018-06-17T05:21:28.630Z,6.93
2018-06-17T05:23:55.677Z,6.70
2018-06-17T05:26:22.740Z,8.70
2018-06-17T05:28:49.955Z,10.80
2018-06-17T05:31:17.008Z,11.27
2018-06-17T05:33:44.157Z,10.53
2018-06-17T05:36:11.464Z,13.17
2018-06-17T05:38:38.549Z,9.13
2018-06-17T05:41:05.599Z,11.80
2018-06-17T05:43:32.621Z,11.60
2018-06-17T05:45:59.710Z,10.60
2018-06-17T05:48:26.839Z,11.40
2018-06-17T05:50:53.846Z,8.90
2018-06-17T05:53:20.902Z,8.63
2018-06-17T05:55:48.073Z,8.50
2018-06-17T05:58:15.227Z,8.73
2018-06-17T06:00:42.355Z,9.00
2018-06-17T06:03:09.467Z,8.63
2018-06-17T06:05:36.513Z,8.13
2018-06-17T06:08:03.589Z,8.37
2018-06-17T06:10:30.666Z,8.50
2018-06-17T06:12:57.736Z,9.13
2018-06-17T06:15:24.769Z,8.97
2018-06-17T06:17:51.819Z,7.70
2018-06-17T06:20:19.984Z,7.77
2018-06-17T06:22:47.104Z,7.77
2018-06-17T06:25:14.091Z,7.03
2018-06-17T06:27:41.140Z,7.57
2018-06-17T06:30:08.163Z,6.67
2018-06-17T06:32:35.423Z,6.17
2018-06-17T06:35:02.483Z,6.37
2018-06-17T06:37:29.620Z,6.07
2018-06-17T06:39:56.627Z,5.60
2018-06-17T06:42:23.864Z,4.63
2018-06-17T06:44:50.970Z,4.60
2018-06-17T06:47:18.418Z,5.33
2018-06-17T06:49:46.019Z,5.23
2018-06-17T06:52:13.086Z,5.40
2018-06-17T06:54:40.852Z,5.03
2018-06-17T06:57:07.968Z,5.17
2018-06-17T06:59:35.666Z,5.07
2018-06-17T07:02:14.205Z,4.87
2018-06-17T07:04:52.677Z,4.90
2018-06-17T07:07:31.315Z,4.63
2018-06-17T07:10:10.088Z,4.50
2018-06-17T07:12:37.419Z,4.63
2018-06-17T07:15:04.565Z,4.67
2018-06-17T07:17:43.276Z,4.80
2018-06-17T07:20:10.341Z,4.23
2018-06-17T07:22:37.377Z,4.00
2018-06-17T07:25:04.461Z,4.30
2018-06-17T07:27:43.164Z,4.23
2018-06-17T07:30:10.250Z,3.60
2018-06-17T07:32:37.350Z,3.90
2018-06-17T07:35:04.390Z,4.67
2018-06-17T07:37:31.449Z,4.03
2018-06-17T07:40:53.216Z,3.70
2018-06-17T07:43:20.536Z,4.33
2018-06-17T07:45:47.623Z,4.07
2018-06-17T07:48:27.254Z,3.63
2018-06-17T07:51:05.788Z,4.00
2018-06-17T07:53:32.894Z,3.50
2018-06-17T07:55:59.973Z,3.53
2018-06-17T07:58:27.414Z,3.50
2018-06-17T08:00:54.533Z,3.60
2018-06-17T08:03:21.627Z,4.00
2018-06-17T08:05:49.248Z,3.17
2018-06-17T08:08:16.403Z,3.20
2018-06-17T08:10:43.518Z,3.30
2018-06-17T08:13:10.642Z,3.40
2018-06-17T08:15:38.049Z,3.00
2018-06-17T08:18:05.223Z,2.73
2018-06-17T08:20:32.969Z,2.50
2018-06-17T08:23:00.120Z,2.90
2018-06-17T08:25:27.177Z,2.97
2018-06-17T08:27:54.254Z,2.83
2018-06-17T08:30:21.365Z,2.90
2018-06-17T08:32:48.420Z,2.70
2018-06-17T08:35:15.417Z,2.67
2018-06-17T08:37:42.472Z,2.80
2018-06-17T08:40:09.602Z,4.50
2018-06-17T08:42:39.273Z,3.53
2018-06-17T08:45:06.520Z,3.50
2018-06-17T08:47:33.602Z,3.17
2018-06-17T08:50:00.651Z,2.77
2018-06-17T08:52:27.748Z,3.40
2018-06-17T08:54:54.796Z,3.27
2018-06-17T08:57:21.902Z,2.80
2018-06-17T08:59:49.256Z,3.43
2018-06-17T09:02:16.581Z,3.10
2018-06-17T09:04:43.672Z,3.30
2018-06-17T09:07:10.769Z,6.77
2018-06-17T09:09:37.848Z,5.27
2018-06-17T09:12:05.556Z,2.90
2018-06-17T09:14:33.690Z,3.57
2018-06-17T09:17:01.047Z,2.80
2018-06-17T09:19:28.083Z,3.33
2018-06-17T09:21:55.350Z,3.00
2018-06-17T09:24:22.403Z,3.77
2018-06-17T09:26:49.438Z,2.90
2018-06-17T09:29:16.449Z,3.00
2018-06-17T09:31:43.652Z,2.93
2018-06-17T09:34:10.709Z,3.20
2018-06-17T09:36:37.891Z,3.30
2018-06-17T09:39:06.937Z,3.67
2018-06-17T09:41:34.645Z,3.10
2018-06-17T09:44:01.725Z,3.60
2018-06-17T09:46:28.904Z,3.60
2018-06-17T09:48:56.119Z,3.20
2018-06-17T09:51:23.294Z,3.07
2018-06-17T09:53:50.408Z,3.73
2018-06-17T09:56:17.502Z,3.37
2018-06-17T09:58:44.636Z,3.53
2018-06-17T10:01:11.796Z,3.90
2018-06-17T10:03:38.952Z,3.10
2018-06-17T10:06:06.109Z,4.03
2018-06-17T10:08:33.241Z,4.20
2018-06-17T10:11:02.147Z,4.10
2018-06-17T10:13:31.362Z,4.00
2018-06-17T10:15:58.494Z,3.80
2018-06-17T10:18:26.050Z,4.40
2018-06-17T10:20:53.497Z,4.33
2018-06-17T10:23:20.773Z,4.40
2018-06-17T10:25:48.722Z,4.60
2018-06-17T10:28:16.401Z,4.30
2018-06-17T10:30:44.598Z,3.23
2018-06-17T10:33:12.053Z,3.70
2018-06-17T10:35:40.386Z,3.73
2018-06-17T10:38:07.649Z,3.07
2018-06-17T10:40:35.450Z,3.77
2018-06-17T10:43:07.117Z,3.27
2018-06-17T10:45:35.022Z,3.50
2018-06-17T10:48:02.179Z,4.23
2018-06-17T10:50:29.330Z,7.63
2018-06-17T10:52:57.069Z,3.83
2018-06-17T10:55:24.376Z,4.27
2018-06-17T10:57:51.827Z,3.87
2018-06-17T11:00:19.541Z,4.50
2018-06-17T11:02:46.602Z,3.83
2018-06-17T11:05:13.654Z,3.67
2018-06-17T11:07:41.612Z,4.23
2018-06-17T11:10:09.364Z,4.00
2018-06-17T11:12:36.524Z,3.43
2018-06-17T11:15:04.480Z,3.90
2018-06-17T11:17:31.518Z,5.53
2018-06-17T11:19:58.634Z,3.80
2018-06-17T11:22:25.723Z,4.40
2018-06-17T11:24:53.480Z,3.77
2018-06-17T11:27:21.407Z,3.67
2018-06-17T11:29:48.781Z,3.40
2018-06-17T11:32:18.929Z,12.53
2018-06-17T11:34:46.600Z,3.50
2018-06-17T11:37:13.801Z,13.57
2018-06-17T11:39:42.419Z,4.10
2018-06-17T11:42:10.089Z,3.60
2018-06-17T11:44:37.521Z,4.70
2018-06-17T11:47:04.972Z,3.90
2018-06-17T11:49:32.220Z,4.17
2018-06-17T11:51:59.650Z,3.93
2018-06-17T11:54:26.934Z,3.50
2018-06-17T11:56:54.631Z,4.03
2018-06-17T11:59:22.406Z,3.90
2018-06-17T12:01:49.672Z,4.30
2018-06-17T12:04:18.284Z,4.47
2018-06-17T12:06:45.506Z,4.50
2018-06-17T12:09:12.616Z,4.50
2018-06-17T12:11:40.045Z,4.33
2018-06-17T12:14:07.180Z,3.40
2018-06-17T12:16:34.556Z,3.70
2018-06-17T12:19:01.996Z,4.20
2018-06-17T12:21:29.792Z,3.40
2018-06-17T12:23:56.919Z,4.23
2018-06-17T12:26:24.083Z,3.70
2018-06-17T12:28:51.377Z,3.93
2018-06-17T12:31:19.516Z,3.73
2018-06-17T12:33:47.025Z,3.30
2018-06-17T12:36:14.120Z,3.60
2018-06-17T12:38:41.261Z,3.67
2018-06-17T12:41:08.317Z,3.63
2018-06-17T12:43:35.654Z,3.70
2018-06-17T12:46:03.335Z,4.30
2018-06-17T12:48:30.920Z,3.93
2018-06-17T12:50:58.140Z,4.40
2018-06-17T12:53:25.197Z,3.60
2018-06-17T12:55:52.935Z,3.97
2018-06-17T12:58:20.660Z,3.60
2018-06-17T13:00:47.748Z,3.63
2018-06-17T13:03:15.029Z,4.27
2018-06-17T13:05:42.205Z,4.23
2018-06-17T13:08:09.328Z,5.20
2018-06-17T13:10:36.390Z,3.70
2018-06-17T13:13:03.495Z,3.97
2018-06-17T13:15:30.548Z,3.73
2018-06-17T13:17:57.708Z,3.90
2018-06-17T13:20:24.752Z,4.83
2018-06-17T13:22:52.753Z,4.57
2018-06-17T13:25:20.322Z,4.37
2018-06-17T13:27:47.436Z,4.63
2018-06-17T13:30:14.513Z,3.57
2018-06-17T13:32:41.589Z,3.90
2018-06-17T13:35:08.937Z,4.33
2018-06-17T13:37:36.026Z,6.13
2018-06-17T13:40:04.143Z,4.07
2018-06-17T13:42:31.215Z,3.73
2018-06-17T13:44:58.332Z,5.23
2018-06-17T13:47:25.392Z,6.97
2018-06-17T13:49:53.259Z,4.40
2018-06-17T13:52:20.375Z,4.10
2018-06-17T13:54:47.595Z,4.47
2018-06-17T13:57:14.689Z,4.10
2018-06-17T13:59:41.854Z,4.27
2018-06-17T14:02:09.381Z,4.10
2018-06-17T14:04:36.428Z,5.30
2018-06-17T14:07:03.605Z,5.03
2018-06-17T14:09:30.761Z,4.13
2018-06-17T14:11:57.879Z,4.20
2018-06-17T14:14:24.953Z,4.00
2018-06-17T14:16:52.125Z,3.70
2018-06-17T14:19:19.268Z,4.10
2018-06-17T14:21:46.384Z,4.33
2018-06-17T14:24:13.668Z,4.30
2018-06-17T14:26:40.719Z,4.50
2018-06-17T14:29:08.194Z,4.30
2018-06-17T14:31:35.264Z,4.33
2018-06-17T14:34:02.468Z,4.53
2018-06-17T14:36:29.561Z,5.10
2018-06-17T14:38:56.687Z,3.77
2018-06-17T14:41:23.877Z,4.50
2018-06-17T14:43:56.849Z,4.10
2018-06-17T14:46:30.280Z,4.00
2018-06-17T14:49:03.736Z,4.33
2018-06-17T14:51:36.549Z,4.70
2018-06-17T14:54:07.545Z,4.30
2018-06-17T14:56:34.678Z,4.30
2018-06-17T14:59:01.834Z,5.03
2018-06-17T15:01:28.994Z,5.20
2018-06-17T15:03:56.109Z,5.10
2018-06-17T15:06:23.456Z,4.73
2018-06-17T15:08:50.524Z,4.77
2018-06-17T15:11:17.932Z,4.73
2018-06-17T15:13:45.065Z,7.00
2018-06-17T15:16:12.540Z,4.00
2018-06-17T15:18:39.732Z,4.40
2018-06-17T15:21:06.847Z,4.73
2018-06-17T15:23:33.917Z,4.07
2018-06-17T15:26:01.005Z,4.80
2018-06-17T15:28:28.085Z,4.77
2018-06-17T15:30:59.814Z,5.13
2018-06-17T15:33:32.873Z,4.20
2018-06-17T15:36:05.612Z,4.77
2018-06-17T15:38:38.464Z,4.03
2018-06-17T15:41:11.220Z,5.03
2018-06-17T15:43:38.328Z,6.33
2018-06-17T15:46:06.313Z,6.10
2018-06-17T15:48:33.459Z,5.23
2018-06-17T15:51:00.541Z,5.00
2018-06-17T15:53:27.713Z,5.20
2018-06-17T15:55:55.207Z,5.43
2018-06-17T15:58:22.730Z,5.13
2018-06-17T16:00:50.533Z,4.57
2018-06-17T16:03:18.066Z,4.97
2018-06-17T16:05:45.142Z,5.23
2018-06-17T16:08:12.672Z,4.30
2018-06-17T16:10:39.775Z,4.60
2018-06-17T16:13:12.604Z,4.97
2018-06-17T16:15:45.857Z,4.80
2018-06-17T16:18:18.680Z,4.70
2018-06-17T16:20:51.600Z,4.73
2018-06-17T16:23:18.864Z,4.63
2018-06-17T16:25:45.963Z,5.80
2018-06-17T16:28:13.545Z,5.90
2018-06-17T16:30:40.612Z,5.07
2018-06-17T16:33:07.890Z,5.37
2018-06-17T16:35:35.070Z,4.60
2018-06-17T16:38:02.491Z,5.10
2018-06-17T16:40:29.608Z,4.93
2018-06-17T16:42:56.807Z,4.20
2018-06-17T16:45:23.970Z,4.10
2018-06-17T16:47:51.749Z,4.60
2018-06-17T16:50:18.963Z,5.23
2018-06-17T16:52:51.697Z,4.50
2018-06-17T16:55:24.426Z,4.70
2018-06-17T16:57:57.260Z,4.90
2018-06-17T17:00:24.582Z,6.00
2018-06-17T17:02:51.694Z,4.20
2018-06-17T17:05:19.054Z,7.10
2018-06-17T17:07:46.238Z,6.70
2018-06-17T17:10:13.698Z,3.83
2018-06-17T17:12:41.306Z,3.90
2018-06-17T17:15:08.574Z,4.73
2018-06-17T17:17:35.705Z,3.90
2018-06-17T17:20:03.283Z,4.20
2018-06-17T17:22:30.424Z,4.80
2018-06-17T17:24:58.304Z,4.70
2018-06-17T17:27:25.478Z,7.20
2018-06-17T17:29:52.605Z,4.30
2018-06-17T17:32:25.521Z,3.93
2018-06-17T17:34:58.509Z,3.80
2018-06-17T17:38:33.288Z,4.07
2018-06-17T17:41:02.444Z,3.70
2018-06-17T17:43:29.644Z,4.40
2018-06-17T17:46:02.478Z,15.80
2018-06-17T17:48:29.793Z,8.30
2018-06-17T17:50:56.958Z,4.00
2018-06-17T17:53:24.061Z,4.27
2018-06-17T17:55:51.260Z,3.70
2018-06-17T17:58:18.338Z,4.43
2018-06-17T18:00:45.446Z,3.70
2018-06-17T18:03:13.291Z,4.33
2018-06-17T18:05:40.653Z,3.93
2018-06-17T18:08:07.980Z,3.73
2018-06-17T18:10:35.151Z,4.27
2018-06-17T18:13:02.674Z,3.60
2018-06-17T18:15:29.828Z,3.73
2018-06-17T18:17:57.780Z,4.60
2018-06-17T18:20:24.914Z,4.63
2018-06-17T18:22:52.949Z,4.47
2018-06-17T18:25:25.880Z,5.00
2018-06-17T18:27:59.374Z,3.73
2018-06-17T18:30:32.070Z,3.90
2018-06-17T18:33:05.248Z,4.27
2018-06-17T18:35:38.562Z,5.10
2018-06-17T18:38:05.741Z,4.53
2018-06-17T18:40:32.985Z,4.70
2018-06-17T18:43:00.431Z,5.67
2018-06-17T18:45:28.010Z,4.67
2018-06-17T18:47:55.649Z,3.93
2018-06-17T18:50:23.247Z,5.00
2018-06-17T18:52:50.363Z,4.10
2018-06-17T18:55:17.648Z,4.73
2018-06-17T18:57:44.742Z,4.30
2018-06-17T19:00:11.902Z,4.80
2018-06-17T19:02:39.115Z,4.50
2018-06-17T19:05:06.420Z,4.63
2018-06-17T19:07:34.564Z,4.67
2018-06-17T19:10:07.456Z,4.60
2018-06-17T19:12:40.286Z,4.50
2018-06-17T19:15:13.488Z,5.30
2018-06-17T19:17:46.535Z,4.83
2018-06-17T19:20:13.788Z,5.27
2018-06-17T19:22:41.215Z,5.27
2018-06-17T19:25:08.364Z,5.57
2018-06-17T19:27:35.590Z,6.10
2018-06-17T19:30:03.201Z,5.17
2018-06-17T19:32:30.434Z,5.40
2018-06-17T19:34:58.866Z,5.70
2018-06-17T19:37:27.033Z,5.60
2018-06-17T19:39:54.870Z,6.07
2018-06-17T19:42:23.353Z,5.97
2018-06-17T19:44:50.814Z,6.10
2018-06-17T19:47:18.897Z,5.47
2018-06-17T19:49:52.033Z,6.00
2018-06-17T19:52:25.113Z,6.40
2018-06-17T19:54:58.363Z,5.77
2018-06-17T19:57:31.284Z,5.53
2018-06-17T20:00:04.270Z,6.40
2018-06-17T20:02:31.848Z,5.63
2018-06-17T20:05:01.003Z,6.17
2018-06-17T20:07:28.524Z,6.87
2018-06-17T20:09:57.038Z,6.50
2018-06-17T20:12:25.330Z,6.80
2018-06-17T20:14:53.381Z,5.93
2018-06-17T20:17:21.192Z,6.13
2018-06-17T20:19:49.684Z,6.20
2018-06-17T20:22:19.299Z,5.87
2018-06-17T20:24:47.218Z,5.60
2018-06-17T20:27:15.299Z,5.40
2018-06-17T20:29:42.870Z,5.83
2018-06-17T20:32:16.194Z,5.63
2018-06-17T20:34:50.401Z,5.30
2018-06-17T20:37:24.268Z,6.60
2018-06-17T20:39:58.585Z,5.70
2018-06-17T20:42:34.777Z,6.40
2018-06-17T20:45:03.749Z,11.37
2018-06-17T20:47:32.591Z,6.20
2018-06-17T20:49:59.972Z,5.33
2018-06-17T20:52:30.025Z,5.97
2018-06-17T20:54:58.978Z,7.07
2018-06-17T20:57:27.594Z,5.37
2018-06-17T20:59:57.041Z,5.30
2018-06-17T21:02:24.400Z,6.50
2018-06-17T21:04:52.435Z,6.17
2018-06-17T21:07:19.591Z,6.60
2018-06-17T21:09:48.078Z,5.77
2018-06-17T21:12:16.294Z,7.07
2018-06-17T21:14:43.588Z,5.93
2018-06-17T21:17:10.886Z,6.33
2018-06-17T21:19:43.567Z,5.10
2018-06-17T21:22:16.486Z,5.97
2018-06-17T21:24:49.335Z,5.37
2018-06-17T21:27:22.221Z,6.43
2018-06-17T21:29:49.451Z,7.50
2018-06-17T21:32:16.658Z,5.90
2018-06-17T21:34:43.980Z,5.73
2018-06-17T21:37:11.140Z,5.57
2018-06-17T21:39:38.466Z,5.83
2018-06-17T21:42:05.732Z,6.00
2018-06-17T21:44:33.024Z,4.90
2018-06-17T21:47:00.207Z,6.10
2018-06-17T21:49:27.419Z,5.27
2018-06-17T21:51:54.620Z,5.73
2018-06-17T21:54:21.999Z,5.07
2018-06-17T21:56:49.131Z,4.83
2018-06-17T21:59:16.280Z,5.40
2018-06-17T22:01:43.432Z,5.10
2018-06-17T22:04:16.968Z,4.97
2018-06-17T22:06:44.162Z,4.17
2018-06-17T22:10:14.752Z,4.87
2018-06-17T22:12:46.680Z,5.23
2018-06-17T22:15:20.071Z,4.97
2018-06-17T22:17:51.733Z,5.03
2018-06-17T22:20:19.275Z,4.43
2018-06-17T22:22:46.443Z,5.07
2018-06-17T22:25:13.598Z,4.07
2018-06-17T22:27:40.749Z,4.47
2018-06-17T22:30:08.517Z,4.70
2018-06-17T22:32:37.247Z,4.17
2018-06-17T22:35:04.606Z,4.13
2018-06-17T22:37:31.752Z,3.90
2018-06-17T22:39:58.850Z,4.43
2018-06-17T22:42:26.006Z,4.50
2018-06-17T22:44:53.153Z,4.37
2018-06-17T22:47:26.354Z,3.73
2018-06-17T22:49:53.629Z,4.17
2018-06-17T22:52:20.931Z,4.50
2018-06-17T22:54:50.757Z,4.10
2018-06-17T22:57:23.684Z,4.07
2018-06-17T22:59:57.090Z,4.07
2018-06-17T23:02:29.820Z,3.90
2018-06-17T23:05:02.788Z,4.77
2018-06-17T23:07:35.835Z,4.07
2018-06-17T23:10:03.531Z,3.73
2018-06-17T23:12:30.712Z,4.13
2018-06-17T23:14:57.860Z,4.37
2018-06-17T23:17:25.012Z,4.53
2018-06-17T23:19:52.121Z,4.47
2018-06-17T23:22:19.275Z,4.30
2018-06-17T23:24:46.406Z,4.97
2018-06-17T23:27:13.666Z,4.17
2018-06-17T23:29:41.035Z,3.90
2018-06-17T23:32:08.307Z,4.23
2018-06-17T23:34:35.431Z,4.30
2018-06-17T23:37:02.648Z,4.43
2018-06-17T23:39:29.734Z,4.33
2018-06-17T23:41:56.951Z,4.87
2018-06-17T23:44:24.031Z,4.63
2018-06-17T23:46:56.756Z,4.40
2018-06-17T23:49:29.675Z,4.20
2018-06-17T23:52:02.338Z,4.70
2018-06-17T23:54:35.154Z,4.57
2018-06-17T23:57:02.649Z,4.10
2018-06-17T23:59:29.768Z,4.17
